Time;durP1;ratioP1;P1;durP2;ratioP2;P2;SDS_P1;SDS_P2;PMS_P1;PMS_P2;Temp;Humidity;BMP_temperature;BMP_pressure;BME280_temperature;BME280_humidity;BME280_pressure;Samples;Min_cycle;Max_cycle;Signal;HPM_P1;HPM_P2
2021/01/06 00:00:37;;;;;;;;;;;21.90;99.90;;;;;;5031648;28;19915;-82
2021/01/06 00:03:04;;;;;;;;;;;21.70;99.60;;;;;;5031975;28;19917;-83
2021/01/06 00:05:31;;;;;;;;;;;21.60;99.50;;;;;;5032346;28;20311;-82
2021/01/06 00:07:57;;;;;;;;;;;21.60;99.70;;;;;;5032092;28;19921;-86
2021/01/06 00:10:25;;;;;;;;;;;21.60;99.90;;;;;;5032648;28;19975;-83
2021/01/06 00:12:52;;;;;;;;;;;21.60;99.80;;;;;;5032555;28;20374;-83
2021/01/06 00:15:22;;;;;;;;;;;21.60;99.80;;;;;;5032532;28;19964;-90
2021/01/06 00:17:49;;;;;;;;;;;21.60;99.60;;;;;;5015576;28;19909;-88
2021/01/06 00:20:16;;;;;;;;;;;21.60;99.80;;;;;;5031342;28;19913;-86
2021/01/06 00:22:43;;;;;;;;;;;21.50;99.80;;;;;;5052546;28;20067;-87
2021/01/06 00:25:12;;;;;;;;;;;21.40;99.90;;;;;;5019515;28;19913;-85
2021/01/06 00:27:39;;;;;;;;;;;21.50;99.90;;;;;;5038495;28;19940;-85
2021/01/06 00:30:09;;;;;;;;;;;21.60;99.90;;;;;;5034451;28;19921;-82
2021/01/06 00:32:36;;;;;;;;;;;21.60;99.90;;;;;;5031516;28;20382;-83
2021/01/06 00:35:03;;;;;;;;;;;21.70;99.90;;;;;;5032682;28;19909;-83
2021/01/06 00:37:40;;;;;;;;;;;21.80;99.90;;;;;;5031535;28;19921;-83
2021/01/06 00:40:07;;;;;;;;;;;21.90;99.60;;;;;;5048666;28;20016;-82
2021/01/06 00:42:37;;;;;;;;;;;21.90;98.90;;;;;;5035924;28;19945;-84
2021/01/06 00:45:08;;;;;;;;;;;21.90;98.90;;;;;;5017750;28;20012;-84
2021/01/06 00:47:35;;;;;;;;;;;22.10;99.10;;;;;;5035862;28;19925;-83
2021/01/06 00:50:03;;;;;;;;;;;22.40;98.20;;;;;;5038329;28;20409;-80
2021/01/06 00:52:29;;;;;;;;;;;22.70;99.60;;;;;;5036072;28;19909;-83
2021/01/06 00:54:56;;;;;;;;;;;22.80;99.10;;;;;;5035145;28;19917;-83
2021/01/06 00:57:23;;;;;;;;;;;23.00;98.70;;;;;;5036091;28;19920;-83
2021/01/06 00:59:49;;;;;;;;;;;23.00;98.10;;;;;;5035938;28;19952;-83
2021/01/06 01:02:16;;;;;;;;;;;22.90;97.40;;;;;;5018334;28;19909;-83
2021/01/06 01:04:45;;;;;;;;;;;22.60;97.50;;;;;;5035632;28;19917;-83
2021/01/06 01:07:12;;;;;;;;;;;22.20;99.90;;;;;;5036284;28;19913;-83
2021/01/06 01:09:38;;;;;;;;;;;21.60;99.90;;;;;;5035692;28;19917;-83
2021/01/06 01:12:09;;;;;;;;;;;21.30;99.90;;;;;;5036527;28;19909;-83
2021/01/06 01:14:38;;;;;;;;;;;21.20;99.90;;;;;;5036091;28;19909;-83
2021/01/06 01:17:05;;;;;;;;;;;21.20;99.90;;;;;;5016392;28;20261;-83
2021/01/06 01:19:31;;;;;;;;;;;21.30;99.90;;;;;;5035491;28;19913;-84
2021/01/06 01:21:58;;;;;;;;;;;21.60;99.90;;;;;;5026721;28;19917;-83
2021/01/06 01:24:25;;;;;;;;;;;21.70;99.90;;;;;;5051684;28;19924;-83
2021/01/06 01:26:52;;;;;;;;;;;21.80;99.90;;;;;;5037644;28;19913;-82
2021/01/06 01:29:18;;;;;;;;;;;21.80;99.90;;;;;;5040071;28;20431;-82
2021/01/06 01:31:46;;;;;;;;;;;21.80;99.70;;;;;;5032639;28;19913;-82
2021/01/06 01:34:14;;;;;;;;;;;21.90;99.10;;;;;;5034924;28;20276;-82
2021/01/06 01:36:47;;;;;;;;;;;21.80;98.40;;;;;;5035401;28;20012;-82
2021/01/06 01:39:14;;;;;;;;;;;21.80;98.50;;;;;;5035136;28;19928;-83
2021/01/06 01:41:41;;;;;;;;;;;21.80;99.00;;;;;;5034189;28;19909;-83
2021/01/06 01:44:08;;;;;;;;;;;21.80;98.60;;;;;;5034171;28;19917;-83
2021/01/06 01:46:55;;;;;;;;;;;21.80;97.90;;;;;;5025230;28;19921;-84
2021/01/06 01:49:29;;;;;;;;;;;21.90;98.30;;;;;;5034741;28;20364;-83
2021/01/06 01:52:00;;;;;;;;;;;21.90;97.50;;;;;;5034436;28;20422;-83
2021/01/06 01:54:27;;;;;;;;;;;22.00;97.80;;;;;;5035068;28;19939;-82
2021/01/06 01:56:59;;;;;;;;;;;22.00;97.60;;;;;;5035238;28;20371;-82
2021/01/06 01:59:31;;;;;;;;;;;22.00;97.20;;;;;;5034807;28;19940;-84
2021/01/06 02:02:00;;;;;;;;;;;22.00;97.20;;;;;;5035448;28;19916;-82
2021/01/06 02:04:47;;;;;;;;;;;21.90;97.00;;;;;;5034779;28;19909;-84
2021/01/06 02:07:17;;;;;;;;;;;22.00;97.30;;;;;;5033454;28;19909;-84
2021/01/06 02:09:50;;;;;;;;;;;22.10;97.30;;;;;;5035434;28;19971;-84
2021/01/06 02:12:24;;;;;;;;;;;22.20;97.10;;;;;;5034568;28;19916;-83
2021/01/06 02:14:55;;;;;;;;;;;22.30;96.90;;;;;;5034777;28;19936;-83
2021/01/06 02:17:21;;;;;;;;;;;22.40;96.90;;;;;;5034555;28;19935;-84
2021/01/06 02:19:48;;;;;;;;;;;22.40;96.40;;;;;;5034795;28;19957;-84
2021/01/06 02:22:17;;;;;;;;;;;22.50;96.10;;;;;;5034524;28;19963;-83
2021/01/06 02:24:44;;;;;;;;;;;22.40;96.30;;;;;;5047027;28;19909;-83
2021/01/06 02:27:12;;;;;;;;;;;22.40;96.20;;;;;;5054456;28;19955;-83
2021/01/06 02:29:39;;;;;;;;;;;22.60;96.10;;;;;;5036183;28;20011;-82
2021/01/06 02:32:06;;;;;;;;;;;22.60;96.00;;;;;;5038802;28;19917;-82
2021/01/06 02:34:34;;;;;;;;;;;22.70;95.90;;;;;;5033420;28;19916;-83
2021/01/06 02:37:01;;;;;;;;;;;22.60;95.70;;;;;;5034457;28;20020;-83
2021/01/06 02:39:31;;;;;;;;;;;22.50;95.90;;;;;;5022406;28;19940;-82
2021/01/06 02:41:57;;;;;;;;;;;22.60;96.50;;;;;;5014465;28;20008;-82
2021/01/06 02:44:24;;;;;;;;;;;22.60;96.00;;;;;;5014228;28;20192;-82
2021/01/06 02:46:52;;;;;;;;;;;22.70;95.60;;;;;;5014016;28;19926;-82
2021/01/06 02:49:19;;;;;;;;;;;22.80;95.70;;;;;;5028038;28;19921;-82
2021/01/06 02:52:09;;;;;;;;;;;22.90;95.50;;;;;;5033701;28;19913;-82
2021/01/06 02:54:37;;;;;;;;;;;22.90;95.50;;;;;;5022960;28;19920;-84
2021/01/06 02:57:05;;;;;;;;;;;23.10;95.20;;;;;;5034135;28;20293;-83
2021/01/06 02:59:35;;;;;;;;;;;23.10;94.90;;;;;;5015794;28;20008;-83
2021/01/06 03:02:02;;;;;;;;;;;23.20;95.20;;;;;;5033682;28;19909;-83
2021/01/06 03:04:32;;;;;;;;;;;23.10;95.40;;;;;;5033263;28;20284;-83
2021/01/06 03:07:02;;;;;;;;;;;22.90;95.70;;;;;;5014030;28;19917;-83
2021/01/06 03:09:37;;;;;;;;;;;22.80;95.80;;;;;;4996376;28;20293;-83
2021/01/06 03:12:06;;;;;;;;;;;22.70;96.30;;;;;;5049377;28;19917;-85
2021/01/06 03:14:34;;;;;;;;;;;22.60;96.00;;;;;;5053352;28;19916;-82
2021/01/06 03:17:02;;;;;;;;;;;22.50;96.30;;;;;;5053471;28;19971;-82
2021/01/06 03:19:31;;;;;;;;;;;22.40;96.00;;;;;;5052030;28;19936;-83
2021/01/06 03:21:59;;;;;;;;;;;22.40;96.40;;;;;;5053339;28;19909;-82
2021/01/06 03:24:27;;;;;;;;;;;22.40;96.00;;;;;;5030964;28;20011;-82
2021/01/06 03:26:56;;;;;;;;;;;22.30;96.30;;;;;;5033198;28;19916;-82
2021/01/06 03:29:24;;;;;;;;;;;22.30;96.20;;;;;;5031805;28;20348;-82
2021/01/06 03:31:51;;;;;;;;;;;22.30;96.20;;;;;;5032428;28;19967;-84
2021/01/06 03:34:20;;;;;;;;;;;22.30;96.10;;;;;;5025604;28;20401;-85
2021/01/06 03:36:51;;;;;;;;;;;22.40;96.30;;;;;;5035515;28;19960;-81
2021/01/06 03:39:20;;;;;;;;;;;22.50;95.60;;;;;;5015448;28;19909;-82
2021/01/06 03:41:47;;;;;;;;;;;22.70;95.70;;;;;;5014241;28;19960;-82
2021/01/06 03:44:15;;;;;;;;;;;22.90;94.90;;;;;;5018551;28;19948;-83
2021/01/06 03:46:46;;;;;;;;;;;22.90;94.00;;;;;;5016292;28;20094;-82
2021/01/06 03:49:38;;;;;;;;;;;22.90;94.40;;;;;;5017615;28;20020;-82
2021/01/06 03:52:17;;;;;;;;;;;22.90;94.70;;;;;;5015932;28;19917;-82
2021/01/06 03:55:03;;;;;;;;;;;22.80;94.80;;;;;;5012189;28;20020;-84
2021/01/06 03:57:30;;;;;;;;;;;22.60;95.20;;;;;;5016600;28;19913;-82
2021/01/06 03:59:58;;;;;;;;;;;22.50;95.40;;;;;;5021773;28;19992;-82
2021/01/06 04:02:28;;;;;;;;;;;22.50;96.00;;;;;;5012383;28;19914;-83
2021/01/06 04:05:27;;;;;;;;;;;22.50;96.00;;;;;;5015851;28;20829;-81
2021/01/06 04:07:56;;;;;;;;;;;22.40;96.50;;;;;;4970729;28;19921;-82
2021/01/06 04:10:31;;;;;;;;;;;22.30;96.70;;;;;;5014017;28;19928;-82
2021/01/06 04:12:58;;;;;;;;;;;22.40;96.60;;;;;;5000999;28;20439;-82
2021/01/06 04:15:24;;;;;;;;;;;22.50;96.20;;;;;;5015478;28;19921;-83
2021/01/06 04:17:53;;;;;;;;;;;22.40;95.80;;;;;;5019683;28;19940;-83
2021/01/06 04:20:28;;;;;;;;;;;22.40;95.30;;;;;;5021259;28;20024;-81
2021/01/06 04:22:57;;;;;;;;;;;22.30;94.30;;;;;;5019104;28;20434;-81
2021/01/06 04:25:27;;;;;;;;;;;22.20;94.20;;;;;;5027332;28;19909;-82
2021/01/06 04:27:57;;;;;;;;;;;22.10;94.70;;;;;;5009995;28;19917;-83
2021/01/06 04:30:24;;;;;;;;;;;22.10;95.20;;;;;;5021725;28;19939;-82
2021/01/06 04:32:51;;;;;;;;;;;22.10;95.90;;;;;;5018663;28;19920;-82
2021/01/06 04:35:18;;;;;;;;;;;22.20;96.30;;;;;;5038618;28;19913;-81
2021/01/06 04:37:48;;;;;;;;;;;22.10;96.10;;;;;;5038403;28;19921;-82
2021/01/06 04:40:16;;;;;;;;;;;22.10;96.20;;;;;;5019168;28;20326;-83
2021/01/06 04:42:43;;;;;;;;;;;22.10;97.00;;;;;;5015680;28;20343;-82
2021/01/06 04:45:22;;;;;;;;;;;22.10;97.00;;;;;;5020123;28;19920;-83
2021/01/06 04:48:01;;;;;;;;;;;22.10;96.90;;;;;;5024847;28;19927;-83
2021/01/06 04:50:49;;;;;;;;;;;22.20;97.00;;;;;;5035270;28;19921;-83
2021/01/06 04:53:34;;;;;;;;;;;22.30;96.80;;;;;;5026323;28;19913;-83
2021/01/06 04:56:15;;;;;;;;;;;22.20;96.60;;;;;;5025713;28;20457;-83
2021/01/06 04:59:00;;;;;;;;;;;22.10;96.40;;;;;;5023678;28;20025;-82
2021/01/06 05:01:39;;;;;;;;;;;22.10;96.70;;;;;;5020942;28;19947;-84
2021/01/06 05:04:06;;;;;;;;;;;22.10;96.70;;;;;;5017939;28;19920;-83
2021/01/06 05:06:32;;;;;;;;;;;22.10;96.80;;;;;;5006583;28;19960;-83
2021/01/06 05:09:09;;;;;;;;;;;22.00;96.50;;;;;;5019150;28;19936;-83
2021/01/06 05:11:42;;;;;;;;;;;22.00;95.90;;;;;;5023089;28;19924;-83
2021/01/06 05:14:08;;;;;;;;;;;22.00;96.30;;;;;;5005314;28;19917;-82
2021/01/06 05:16:36;;;;;;;;;;;22.10;95.80;;;;;;5019806;28;20014;-81
2021/01/06 05:19:08;;;;;;;;;;;22.10;95.20;;;;;;5017610;28;20128;-83
2021/01/06 05:21:35;;;;;;;;;;;22.10;95.40;;;;;;5016748;28;19971;-83
2021/01/06 05:24:06;;;;;;;;;;;22.20;95.70;;;;;;5021566;28;20061;-83
2021/01/06 05:26:33;;;;;;;;;;;22.20;95.90;;;;;;5018210;28;20282;-83
2021/01/06 05:29:01;;;;;;;;;;;22.00;96.30;;;;;;5014485;28;20379;-83
2021/01/06 05:31:28;;;;;;;;;;;21.90;96.40;;;;;;5018699;28;19918;-83
2021/01/06 05:33:54;;;;;;;;;;;21.80;97.00;;;;;;5019001;28;20426;-82
2021/01/06 05:36:29;;;;;;;;;;;21.70;97.70;;;;;;5017150;28;19995;-82
2021/01/06 05:39:00;;;;;;;;;;;21.50;99.90;;;;;;5019296;28;19913;-81
2021/01/06 05:41:27;;;;;;;;;;;21.00;99.90;;;;;;5008766;28;19971;-81
2021/01/06 05:43:54;;;;;;;;;;;20.80;99.90;;;;;;5018884;28;19921;-81
2021/01/06 05:46:31;;;;;;;;;;;20.50;99.90;;;;;;5027243;28;19917;-80
2021/01/06 05:49:01;;;;;;;;;;;20.10;99.90;;;;;;5025463;28;20395;-79
2021/01/06 05:51:33;;;;;;;;;;;19.80;99.90;;;;;;5014365;28;19924;-82
2021/01/06 05:53:59;;;;;;;;;;;19.80;99.90;;;;;;5013836;28;20103;-81
2021/01/06 05:56:26;;;;;;;;;;;19.70;99.90;;;;;;5016080;28;20391;-81
2021/01/06 05:59:08;;;;;;;;;;;19.70;99.90;;;;;;5024715;28;19917;-81
2021/01/06 06:01:47;;;;;;;;;;;19.70;99.90;;;;;;5022106;28;19920;-82
2021/01/06 06:04:32;;;;;;;;;;;19.70;99.90;;;;;;5020845;28;20375;-80
2021/01/06 06:07:19;;;;;;;;;;;19.70;99.90;;;;;;5015600;28;19909;-80
2021/01/06 06:09:54;;;;;;;;;;;19.70;99.90;;;;;;5013521;28;20424;-81
2021/01/06 06:12:39;;;;;;;;;;;19.70;99.90;;;;;;5013404;28;19983;-81
2021/01/06 06:15:14;;;;;;;;;;;19.70;99.90;;;;;;5014960;28;19937;-81
2021/01/06 06:18:04;;;;;;;;;;;19.80;99.90;;;;;;5013222;28;19916;-81
2021/01/06 06:20:40;;;;;;;;;;;19.90;99.90;;;;;;4946403;28;20291;-81
2021/01/06 06:23:21;;;;;;;;;;;20.00;99.90;;;;;;5012109;28;19924;-82
2021/01/06 06:25:57;;;;;;;;;;;20.00;99.90;;;;;;5019411;28;19913;-82
2021/01/06 06:28:29;;;;;;;;;;;19.90;99.90;;;;;;5021331;28;19917;-82
2021/01/06 06:31:11;;;;;;;;;;;19.90;99.90;;;;;;5031377;28;19921;-80
2021/01/06 06:33:38;;;;;;;;;;;19.90;99.90;;;;;;5031686;28;19963;-80
2021/01/06 06:36:12;;;;;;;;;;;19.80;99.90;;;;;;5032247;28;19959;-80
2021/01/06 06:38:47;;;;;;;;;;;19.70;99.90;;;;;;5034174;28;20379;-81
2021/01/06 06:41:22;;;;;;;;;;;19.70;99.90;;;;;;5040133;28;19965;-82
2021/01/06 06:44:13;;;;;;;;;;;19.70;99.90;;;;;;5027463;28;19985;-82
2021/01/06 06:47:00;;;;;;;;;;;19.70;99.90;;;;;;5014721;28;19925;-82
2021/01/06 06:49:40;;;;;;;;;;;19.80;99.90;;;;;;5031800;28;19928;-83
2021/01/06 06:52:29;;;;;;;;;;;19.90;99.90;;;;;;5031183;28;20016;-83
2021/01/06 06:54:56;;;;;;;;;;;20.10;99.90;;;;;;4993320;28;19913;-80
2021/01/06 06:57:25;;;;;;;;;;;20.00;99.90;;;;;;5017689;28;19935;-78
2021/01/06 06:59:55;;;;;;;;;;;19.70;99.90;;;;;;5031076;28;20115;-82
2021/01/06 07:02:22;;;;;;;;;;;19.60;99.90;;;;;;5032115;28;19917;-83
2021/01/06 07:04:51;;;;;;;;;;;19.50;99.90;;;;;;5016598;28;20003;-80
2021/01/06 07:07:39;;;;;;;;;;;19.60;99.90;;;;;;5043605;28;20379;-80
2021/01/06 07:10:12;;;;;;;;;;;19.60;99.90;;;;;;5031163;28;20264;-80
2021/01/06 07:12:40;;;;;;;;;;;19.70;99.90;;;;;;5049868;28;19913;-81
2021/01/06 07:15:18;;;;;;;;;;;19.60;99.90;;;;;;5031635;28;19963;-83
2021/01/06 07:17:45;;;;;;;;;;;19.60;99.90;;;;;;5030986;28;19920;-79
2021/01/06 07:20:14;;;;;;;;;;;19.70;99.90;;;;;;5031102;28;19913;-80
2021/01/06 07:22:45;;;;;;;;;;;19.70;99.90;;;;;;5030186;28;19979;-81
2021/01/06 07:25:18;;;;;;;;;;;19.70;99.90;;;;;;5030928;28;19940;-79
2021/01/06 07:27:57;;;;;;;;;;;19.90;99.90;;;;;;5029975;28;20089;-79
2021/01/06 07:30:50;;;;;;;;;;;19.90;99.90;;;;;;5031126;28;19921;-83
2021/01/06 07:33:30;;;;;;;;;;;20.00;99.90;;;;;;5028492;28;19909;-84
2021/01/06 07:36:17;;;;;;;;;;;20.00;99.90;;;;;;5029305;28;19914;-79
2021/01/06 07:38:45;;;;;;;;;;;20.00;99.90;;;;;;5029790;28;19921;-82
2021/01/06 07:41:11;;;;;;;;;;;20.10;99.90;;;;;;5030965;28;19917;-83
2021/01/06 07:43:44;;;;;;;;;;;20.10;99.90;;;;;;5031213;28;19913;-83
2021/01/06 07:46:10;;;;;;;;;;;20.10;99.90;;;;;;5030761;28;19925;-85
2021/01/06 07:48:37;;;;;;;;;;;20.10;99.90;;;;;;5030738;28;19913;-81
2021/01/06 07:51:09;;;;;;;;;;;20.10;99.90;;;;;;5030175;28;20433;-81
2021/01/06 07:53:40;;;;;;;;;;;20.10;99.90;;;;;;5030493;28;20387;-80
2021/01/06 07:56:16;;;;;;;;;;;20.10;99.90;;;;;;5030461;28;19967;-81
2021/01/06 07:58:49;;;;;;;;;;;20.10;99.90;;;;;;5030394;28;20051;-80
2021/01/06 08:01:19;;;;;;;;;;;20.00;99.90;;;;;;5028917;28;19921;-83
2021/01/06 08:04:00;;;;;;;;;;;20.00;99.90;;;;;;5030085;28;20322;-81
2021/01/06 08:06:49;;;;;;;;;;;20.20;99.90;;;;;;5031633;28;19909;-81
2021/01/06 08:09:33;;;;;;;;;;;20.10;99.90;;;;;;5029715;28;19918;-81
2021/01/06 08:12:02;;;;;;;;;;;20.10;99.90;;;;;;5030602;28;19914;-81
2021/01/06 08:14:32;;;;;;;;;;;20.10;99.90;;;;;;5030930;28;19913;-82
2021/01/06 08:17:03;;;;;;;;;;;20.10;99.90;;;;;;5030623;28;19909;-81
2021/01/06 08:19:55;;;;;;;;;;;20.10;99.90;;;;;;5030593;28;20220;-81
2021/01/06 08:22:42;;;;;;;;;;;20.30;99.90;;;;;;5028870;28;20022;-82
2021/01/06 08:25:14;;;;;;;;;;;20.30;99.90;;;;;;5017787;28;20375;-81
2021/01/06 08:27:41;;;;;;;;;;;20.40;99.90;;;;;;5032840;28;19913;-81
2021/01/06 08:30:16;;;;;;;;;;;20.50;99.90;;;;;;5032424;28;20343;-82
2021/01/06 08:32:43;;;;;;;;;;;20.40;99.90;;;;;;5032489;28;19913;-81
2021/01/06 08:35:16;;;;;;;;;;;20.50;99.90;;;;;;5032304;28;19921;-81
2021/01/06 08:37:44;;;;;;;;;;;20.50;99.90;;;;;;5032767;28;19917;-81
2021/01/06 08:40:34;;;;;;;;;;;20.40;99.90;;;;;;5032792;28;19913;-83
2021/01/06 08:43:11;;;;;;;;;;;20.40;99.90;;;;;;5026603;28;19913;-82
2021/01/06 08:45:42;;;;;;;;;;;20.40;99.90;;;;;;5031961;28;20318;-81
2021/01/06 08:48:23;;;;;;;;;;;20.40;99.90;;;;;;5032761;28;19958;-82
2021/01/06 08:50:51;;;;;;;;;;;20.40;99.90;;;;;;5012932;28;20015;-81
2021/01/06 08:53:28;;;;;;;;;;;20.40;99.90;;;;;;5006920;28;19986;-82
2021/01/06 08:55:57;;;;;;;;;;;20.40;99.50;;;;;;5032018;28;19971;-82
2021/01/06 08:58:23;;;;;;;;;;;20.40;99.50;;;;;;5031514;28;19913;-82
2021/01/06 09:00:50;;;;;;;;;;;20.40;99.40;;;;;;5034144;28;20368;-82
2021/01/06 09:03:23;;;;;;;;;;;20.40;99.30;;;;;;5036488;28;19909;-82
2021/01/06 09:05:52;;;;;;;;;;;20.40;99.60;;;;;;5036226;28;19960;-82
2021/01/06 09:08:22;;;;;;;;;;;20.40;99.10;;;;;;5035722;28;19937;-83
2021/01/06 09:10:58;;;;;;;;;;;20.30;99.30;;;;;;5035704;28;19964;-82
2021/01/06 09:13:29;;;;;;;;;;;20.30;99.20;;;;;;5034674;28;19913;-82
2021/01/06 09:16:08;;;;;;;;;;;20.30;99.60;;;;;;5016401;28;19914;-82
2021/01/06 09:18:39;;;;;;;;;;;20.40;99.30;;;;;;5022667;28;20081;-83
2021/01/06 09:21:20;;;;;;;;;;;20.30;99.30;;;;;;5039691;28;19897;-83
2021/01/06 09:23:49;;;;;;;;;;;20.30;99.40;;;;;;5058636;28;19974;-83
2021/01/06 09:26:17;;;;;;;;;;;20.30;98.90;;;;;;5037027;28;19917;-82
2021/01/06 09:28:47;;;;;;;;;;;20.30;99.00;;;;;;5035447;28;19936;-82
2021/01/06 09:31:17;;;;;;;;;;;20.30;99.50;;;;;;5035711;28;19920;-84
2021/01/06 09:33:49;;;;;;;;;;;20.30;98.70;;;;;;5035130;28;19943;-84
2021/01/06 09:36:16;;;;;;;;;;;20.30;98.50;;;;;;5035315;28;19998;-83
2021/01/06 09:38:43;;;;;;;;;;;20.30;98.60;;;;;;5034973;28;20312;-83
2021/01/06 09:41:23;;;;;;;;;;;20.30;98.50;;;;;;5000051;28;19910;-83
2021/01/06 09:43:54;;;;;;;;;;;20.30;98.30;;;;;;5032756;28;19916;-84
2021/01/06 09:46:27;;;;;;;;;;;20.20;98.00;;;;;;5035175;28;20311;-82
2021/01/06 09:49:03;;;;;;;;;;;20.20;98.30;;;;;;5034701;28;20382;-83
2021/01/06 09:51:34;;;;;;;;;;;20.20;98.30;;;;;;5033737;28;19920;-83
2021/01/06 09:54:02;;;;;;;;;;;20.20;98.40;;;;;;5034620;28;20310;-81
2021/01/06 09:56:30;;;;;;;;;;;20.20;98.50;;;;;;5035397;28;19909;-83
2021/01/06 09:58:58;;;;;;;;;;;20.10;98.60;;;;;;5035239;28;19916;-81
2021/01/06 10:01:33;;;;;;;;;;;20.20;99.00;;;;;;5035128;28;19967;-82
2021/01/06 10:04:15;;;;;;;;;;;20.10;99.20;;;;;;5034014;28;19914;-82
2021/01/06 10:06:50;;;;;;;;;;;20.10;99.20;;;;;;5030555;28;19917;-81
2021/01/06 10:09:26;;;;;;;;;;;20.10;99.50;;;;;;5032211;28;20015;-83
2021/01/06 10:12:05;;;;;;;;;;;20.10;99.60;;;;;;5016232;28;19945;-82
2021/01/06 10:14:32;;;;;;;;;;;20.10;99.70;;;;;;5033796;28;20390;-82
2021/01/06 10:17:02;;;;;;;;;;;20.10;99.90;;;;;;5034538;28;20315;-82
2021/01/06 10:19:50;;;;;;;;;;;20.10;99.90;;;;;;5014574;28;20423;-82
2021/01/06 10:22:52;;;;;;;;;;;20.10;98.90;;;;;;5030570;28;20356;-82
2021/01/06 10:25:33;;;;;;;;;;;20.00;98.40;;;;;;5017233;28;19913;-82
2021/01/06 10:28:14;;;;;;;;;;;20.00;98.40;;;;;;5034372;28;19975;-82
2021/01/06 10:30:58;;;;;;;;;;;20.00;98.00;;;;;;5034636;28;19917;-80
2021/01/06 10:33:29;;;;;;;;;;;20.00;98.10;;;;;;5033768;28;19917;-77
2021/01/06 10:35:59;;;;;;;;;;;20.00;98.20;;;;;;5033603;28;19913;-82
2021/01/06 10:38:30;;;;;;;;;;;20.10;98.10;;;;;;5033044;28;20326;-82
2021/01/06 10:41:11;;;;;;;;;;;20.10;98.00;;;;;;5033881;28;19961;-80
2021/01/06 10:44:04;;;;;;;;;;;20.10;97.80;;;;;;5033093;28;19913;-81
2021/01/06 10:46:37;;;;;;;;;;;20.10;97.80;;;;;;5005464;28;19997;-83
2021/01/06 10:49:33;;;;;;;;;;;20.10;97.80;;;;;;4996591;28;19920;-82
2021/01/06 10:52:11;;;;;;;;;;;20.10;97.80;;;;;;4998051;28;20043;-80
2021/01/06 10:54:53;;;;;;;;;;;20.20;97.70;;;;;;5032727;28;19917;-85
2021/01/06 10:57:19;;;;;;;;;;;20.20;98.00;;;;;;5014339;28;19917;-81
2021/01/06 11:00:04;;;;;;;;;;;20.20;97.80;;;;;;5032052;28;19909;-82
2021/01/06 11:02:38;;;;;;;;;;;20.20;97.90;;;;;;5013460;28;19971;-83
2021/01/06 11:05:10;;;;;;;;;;;20.30;98.10;;;;;;5032901;28;20114;-81
2021/01/06 11:08:11;;;;;;;;;;;20.20;98.20;;;;;;5033603;28;20008;-82
2021/01/06 11:10:41;;;;;;;;;;;20.20;98.20;;;;;;5003243;28;20396;-81
2021/01/06 11:13:11;;;;;;;;;;;20.20;97.70;;;;;;5029519;28;20000;-80
2021/01/06 11:15:57;;;;;;;;;;;20.20;98.00;;;;;;5032937;28;20000;-85
2021/01/06 11:18:27;;;;;;;;;;;20.20;98.50;;;;;;5024620;28;20360;-82
2021/01/06 11:21:12;;;;;;;;;;;20.10;98.70;;;;;;5033087;28;19913;-82
2021/01/06 11:23:45;;;;;;;;;;;19.90;99.00;;;;;;5019740;28;19913;-84
2021/01/06 11:26:24;;;;;;;;;;;19.90;98.80;;;;;;5032424;28;19921;-82
2021/01/06 11:29:15;;;;;;;;;;;19.90;99.30;;;;;;5032870;28;19916;-80
2021/01/06 11:31:46;;;;;;;;;;;19.80;99.40;;;;;;5033952;28;19917;-80
2021/01/06 11:34:15;;;;;;;;;;;19.90;99.60;;;;;;5033013;28;19913;-81
2021/01/06 11:36:44;;;;;;;;;;;19.90;99.50;;;;;;5032141;28;19926;-81
2021/01/06 11:39:15;;;;;;;;;;;19.80;99.50;;;;;;5029180;28;19913;-80
2021/01/06 11:41:48;;;;;;;;;;;19.90;99.70;;;;;;5033060;28;20439;-79
2021/01/06 11:44:24;;;;;;;;;;;19.80;99.50;;;;;;5039839;28;19917;-82
2021/01/06 11:47:02;;;;;;;;;;;19.80;99.50;;;;;;5040700;28;20314;-82
2021/01/06 11:49:48;;;;;;;;;;;19.80;99.60;;;;;;5040012;28;20356;-84
2021/01/06 11:52:26;;;;;;;;;;;19.80;99.90;;;;;;5032808;28;19909;-85
2021/01/06 11:55:02;;;;;;;;;;;19.80;99.90;;;;;;5015629;28;20295;-83
2021/01/06 11:57:35;;;;;;;;;;;19.70;99.70;;;;;;5032175;28;19936;-85
2021/01/06 12:00:15;;;;;;;;;;;19.70;99.80;;;;;;5032290;28;20055;-81
2021/01/06 12:02:55;;;;;;;;;;;19.70;99.90;;;;;;5013830;28;19959;-84
2021/01/06 12:05:31;;;;;;;;;;;19.70;99.90;;;;;;5033175;28;20364;-83
2021/01/06 12:07:58;;;;;;;;;;;19.70;99.90;;;;;;5013975;28;20016;-83
2021/01/06 12:10:44;;;;;;;;;;;19.70;99.90;;;;;;5033173;28;20047;-86
2021/01/06 12:13:23;;;;;;;;;;;19.60;99.90;;;;;;5032357;28;19961;-83
2021/01/06 12:15:52;;;;;;;;;;;19.50;99.90;;;;;;5032596;28;19965;-84
2021/01/06 12:18:28;;;;;;;;;;;19.50;99.90;;;;;;5032269;28;19921;-81
2021/01/06 12:20:56;;;;;;;;;;;19.50;99.90;;;;;;5032465;28;19940;-81
2021/01/06 12:23:25;;;;;;;;;;;19.50;99.90;;;;;;5014515;28;20356;-82
2021/01/06 12:25:53;;;;;;;;;;;19.40;99.90;;;;;;5031626;28;19919;-82
2021/01/06 12:28:26;;;;;;;;;;;19.40;99.90;;;;;;5031701;28;19919;-82
2021/01/06 12:31:12;;;;;;;;;;;19.40;99.90;;;;;;5032088;28;19929;-81
2021/01/06 12:33:41;;;;;;;;;;;19.40;99.90;;;;;;5032183;28;19909;-81
2021/01/06 12:36:17;;;;;;;;;;;19.40;99.90;;;;;;5031947;28;19925;-81
2021/01/06 12:38:45;;;;;;;;;;;19.40;99.90;;;;;;5033672;28;19920;-82
2021/01/06 12:41:52;;;;;;;;;;;19.50;99.90;;;;;;5036510;28;19921;-81
2021/01/06 12:44:24;;;;;;;;;;;19.60;99.90;;;;;;5035617;28;19921;-83
2021/01/06 12:47:02;;;;;;;;;;;19.60;99.90;;;;;;5032848;28;20000;-82
2021/01/06 12:49:36;;;;;;;;;;;19.60;99.90;;;;;;5036558;28;19921;-81
2021/01/06 12:52:20;;;;;;;;;;;19.60;99.90;;;;;;5036568;28;19913;-80
2021/01/06 12:54:54;;;;;;;;;;;19.60;99.90;;;;;;5036452;28;20249;-81
2021/01/06 12:57:26;;;;;;;;;;;19.60;99.90;;;;;;5036063;28;19944;-82
2021/01/06 12:59:58;;;;;;;;;;;19.60;99.90;;;;;;5035244;28;19916;-81
2021/01/06 13:02:33;;;;;;;;;;;19.60;99.90;;;;;;5035568;28;19917;-82
2021/01/06 13:05:11;;;;;;;;;;;19.70;99.90;;;;;;5036244;28;19916;-81
2021/01/06 13:07:44;;;;;;;;;;;19.70;99.90;;;;;;5036048;28;20373;-82
2021/01/06 13:10:25;;;;;;;;;;;19.70;99.90;;;;;;5018717;28;19921;-82
2021/01/06 13:13:00;;;;;;;;;;;19.70;99.90;;;;;;5036330;28;19909;-82
2021/01/06 13:15:46;;;;;;;;;;;19.70;99.90;;;;;;5036115;28;19916;-81
2021/01/06 13:18:28;;;;;;;;;;;;;;;;;;;;;
2021/01/06 13:21:01;;;;;;;;;;;19.60;99.50;;;;;;5035690;28;19913;-81
2021/01/06 13:23:34;;;;;;;;;;;19.60;99.50;;;;;;5035900;28;19972;-80
2021/01/06 13:26:27;;;;;;;;;;;19.60;99.90;;;;;;5035962;28;19909;-81
2021/01/06 13:29:08;;;;;;;;;;;19.60;99.90;;;;;;5031231;28;19956;-81
2021/01/06 13:31:50;;;;;;;;;;;19.60;99.90;;;;;;5035948;28;19920;-82
2021/01/06 13:34:24;;;;;;;;;;;19.60;99.90;;;;;;5035425;28;19916;-82
2021/01/06 13:36:58;;;;;;;;;;;19.60;99.90;;;;;;5035929;28;20338;-82
2021/01/06 13:39:30;;;;;;;;;;;19.60;99.90;;;;;;5035677;28;20299;-82
2021/01/06 13:41:59;;;;;;;;;;;19.60;99.90;;;;;;5035848;28;19909;-82
2021/01/06 13:44:42;;;;;;;;;;;19.60;99.90;;;;;;5035916;28;19909;-81
2021/01/06 13:47:29;;;;;;;;;;;19.60;99.90;;;;;;5019062;28;19928;-81
2021/01/06 13:50:16;;;;;;;;;;;19.60;99.90;;;;;;5054341;28;20031;-82
2021/01/06 13:52:55;;;;;;;;;;;19.60;99.90;;;;;;5055654;28;19908;-82
2021/01/06 13:55:40;;;;;;;;;;;19.60;99.90;;;;;;5055625;28;19909;-81
2021/01/06 13:58:47;;;;;;;;;;;19.40;99.90;;;;;;5015434;28;19910;-80
2021/01/06 14:01:20;;;;;;;;;;;19.00;99.90;;;;;;5035900;28;19913;-78
2021/01/06 14:03:53;;;;;;;;;;;18.60;99.90;;;;;;5034684;28;19913;-79
2021/01/06 14:06:31;;;;;;;;;;;18.30;99.90;;;;;;5034081;28;19913;-79
2021/01/06 14:09:09;;;;;;;;;;;18.10;99.90;;;;;;5035186;28;19979;-79
2021/01/06 14:11:45;;;;;;;;;;;17.90;99.90;;;;;;5035531;28;19917;-79
2021/01/06 14:14:32;;;;;;;;;;;17.80;99.90;;;;;;5035183;28;19916;-79
2021/01/06 14:17:02;;;;;;;;;;;17.80;99.90;;;;;;5035232;28;20007;-80
2021/01/06 14:19:38;;;;;;;;;;;17.80;99.90;;;;;;5035050;28;19916;-80
2021/01/06 14:22:13;;;;;;;;;;;17.80;99.90;;;;;;5035016;28;19913;-80
2021/01/06 14:24:50;;;;;;;;;;;17.80;99.90;;;;;;5035130;28;19940;-80
2021/01/06 14:27:35;;;;;;;;;;;17.80;99.90;;;;;;5033907;28;20391;-80
2021/01/06 14:30:08;;;;;;;;;;;17.90;99.90;;;;;;5034801;28;20011;-80
2021/01/06 14:32:48;;;;;;;;;;;18.00;99.90;;;;;;5017214;28;19940;-80
2021/01/06 14:35:14;;;;;;;;;;;18.00;99.90;;;;;;5018507;28;19909;-78
2021/01/06 14:37:47;;;;;;;;;;;18.00;99.90;;;;;;5014697;28;19980;-79
2021/01/06 14:40:14;;;;;;;;;;;18.10;99.90;;;;;;4997330;28;19992;-77
2021/01/06 14:42:45;;;;;;;;;;;18.20;99.90;;;;;;5014744;28;19963;-79
2021/01/06 14:45:21;;;;;;;;;;;18.20;99.90;;;;;;5014916;28;20374;-79
2021/01/06 14:48:06;;;;;;;;;;;18.20;99.90;;;;;;5034075;28;19927;-80
2021/01/06 14:50:40;;;;;;;;;;;18.30;99.90;;;;;;5052515;28;20364;-80
2021/01/06 14:53:17;;;;;;;;;;;18.40;99.90;;;;;;5054353;28;19909;-79
2021/01/06 14:55:43;;;;;;;;;;;18.40;99.90;;;;;;5054186;28;19967;-80